createdAt,value
2023-02-05T00:00:02.981Z,103695.22
2023-02-05T00:02:29.432Z,103645.59
2023-02-05T00:04:56.144Z,103662.97
2023-02-05T00:07:23.909Z,103627.97
2023-02-05T00:09:50.339Z,103610.47
2023-02-05T00:12:16.800Z,103604.34
2023-02-05T00:14:43.333Z,103679.44
2023-02-05T00:17:09.937Z,103643.69
2023-02-05T00:19:36.590Z,103661.06
2023-02-05T00:22:03.054Z,103565.94
2023-02-05T00:24:29.454Z,103622.59
2023-02-05T00:26:56.102Z,103548.44
2023-02-05T00:29:22.679Z,103646.94
2023-02-05T00:31:49.668Z,103617.25
2023-02-05T00:34:16.991Z,103490.75
2023-02-05T00:36:43.475Z,103446.25
2023-02-05T00:39:11.440Z,103595.41
2023-02-05T00:41:38.615Z,103623.25
2023-02-05T00:44:05.457Z,103602.34
2023-02-05T00:46:32.137Z,103583.19
2023-02-05T00:48:58.722Z,103566.63
2023-02-05T00:51:25.257Z,103544.75
2023-02-05T00:53:51.806Z,103608.41
2023-02-05T00:56:18.437Z,103577.88
2023-02-05T00:58:49.981Z,103444.59
2023-02-05T01:01:17.268Z,103572.63
2023-02-05T01:03:44.081Z,103489.78
2023-02-05T01:06:11.079Z,103405.28
2023-02-05T01:08:37.631Z,103425.47
2023-02-05T01:11:07.553Z,103522.94
2023-02-05T01:13:34.236Z,103508.94
2023-02-05T01:16:00.764Z,103565.59
2023-02-05T01:18:27.218Z,103531.72
2023-02-05T01:20:53.841Z,103413.97
2023-02-05T01:23:20.298Z,103484.47
2023-02-05T01:25:46.777Z,103497.50
2023-02-05T01:28:14.110Z,103500.06
2023-02-05T01:30:43.587Z,103555.00
2023-02-05T01:33:10.222Z,103582.19
2023-02-05T01:35:36.928Z,103483.50
2023-02-05T01:38:03.459Z,103504.28
2023-02-05T01:40:30.033Z,103510.41
2023-02-05T01:42:56.511Z,103441.53
2023-02-05T01:45:22.972Z,103522.50
2023-02-05T01:47:51.685Z,103400.50
2023-02-05T01:50:32.149Z,103389.19
2023-02-05T01:53:02.510Z,103530.34
2023-02-05T01:55:30.923Z,103471.19
2023-02-05T01:58:00.623Z,103338.75
2023-02-05T02:00:27.104Z,103315.22
2023-02-05T02:02:53.843Z,103504.16
2023-02-05T02:05:20.619Z,103536.41
2023-02-05T02:07:47.268Z,103513.75
2023-02-05T02:10:17.590Z,103495.41
2023-02-05T02:12:47.448Z,103512.91
2023-02-05T02:15:21.044Z,103542.44
2023-02-05T02:17:53.765Z,103509.31
2023-02-05T02:20:23.437Z,103506.66
2023-02-05T02:22:56.247Z,103559.91
2023-02-05T02:25:40.938Z,103481.31
2023-02-05T02:28:17.976Z,103504.03
2023-02-05T02:30:56.693Z,103539.63
2023-02-05T02:33:38.593Z,103534.38
2023-02-05T02:36:19.305Z,103527.34
2023-02-05T02:39:12.480Z,103500.34
2023-02-05T02:41:50.533Z,103470.72
2023-02-05T02:44:37.365Z,103441.97
2023-02-05T02:47:11.096Z,103529.13
2023-02-05T02:49:44.014Z,103522.13
2023-02-05T02:52:15.341Z,103509.91
2023-02-05T02:54:46.155Z,103463.81
2023-02-05T02:57:15.735Z,103516.06
2023-02-05T02:59:45.099Z,103396.84
2023-02-05T03:02:15.887Z,103511.00
2023-02-05T03:05:03.798Z,103538.00
2023-02-05T03:07:38.810Z,103480.50
2023-02-05T03:10:11.179Z,103519.59
2023-02-05T03:12:37.670Z,103519.63
2023-02-05T03:18:01.903Z,103507.34
2023-02-05T03:20:32.913Z,103432.41
2023-02-05T03:22:59.700Z,103407.06
2023-02-05T03:25:28.680Z,103311.34
2023-02-05T03:27:56.592Z,103453.25
2023-02-05T03:30:29.475Z,103303.47
2023-02-05T03:33:12.538Z,103455.78
2023-02-05T03:35:52.753Z,103459.28
2023-02-05T03:38:29.402Z,103473.94
2023-02-05T03:41:08.568Z,103459.97
2023-02-05T03:44:05.452Z,103437.25
2023-02-05T03:46:48.114Z,103414.63
2023-02-05T03:49:29.604Z,103452.94
2023-02-05T03:52:27.153Z,103434.47
2023-02-05T03:55:05.320Z,103428.28
2023-02-05T03:57:56.509Z,103410.88
2023-02-05T04:00:25.380Z,103356.00
2023-02-05T04:02:51.837Z,103440.41
2023-02-05T04:05:22.857Z,103424.75
2023-02-05T04:07:50.349Z,103441.16
2023-02-05T04:10:18.036Z,103213.19
2023-02-05T04:12:45.085Z,103443.59
2023-02-05T04:15:12.050Z,103414.91
2023-02-05T04:17:39.258Z,103445.41
2023-02-05T04:20:06.933Z,103405.16
2023-02-05T04:22:33.735Z,103435.72
2023-02-05T04:25:00.239Z,103403.19
2023-02-05T04:27:26.698Z,103383.16
2023-02-05T04:29:53.153Z,103355.25
2023-02-05T04:32:19.622Z,103380.34
2023-02-05T04:34:46.459Z,103340.13
2023-02-05T04:37:13.055Z,103383.59
2023-02-05T04:39:39.508Z,103334.97
2023-02-05T04:42:06.137Z,103367.09
2023-02-05T04:44:32.583Z,103346.84
2023-02-05T04:46:59.640Z,103383.41
2023-02-05T04:49:26.270Z,103375.69
2023-02-05T04:51:52.729Z,103239.91
2023-02-05T04:54:19.294Z,103340.59
2023-02-05T04:56:46.877Z,103298.97
2023-02-05T04:59:13.462Z,103361.63
2023-02-05T05:01:40.627Z,103222.47
2023-02-05T05:04:07.209Z,103359.94
2023-02-05T05:06:33.705Z,103349.34
2023-02-05T05:09:00.296Z,103350.97
2023-02-05T05:11:26.845Z,103266.53
2023-02-05T05:13:53.366Z,103350.03
2023-02-05T05:16:19.944Z,103306.41
2023-02-05T05:18:46.648Z,103155.31
2023-02-05T05:21:13.192Z,103355.94
2023-02-05T05:23:39.643Z,103271.63
2023-02-05T05:26:12.034Z,103347.97
2023-02-05T05:28:38.917Z,103320.28
2023-02-05T05:31:17.357Z,103340.97
2023-02-05T05:33:43.869Z,103305.59
2023-02-05T05:36:10.517Z,103319.25
2023-02-05T05:38:37.169Z,103209.66
2023-02-05T05:41:22.762Z,103327.75
2023-02-05T05:43:49.850Z,103263.63
2023-02-05T05:46:23.029Z,103345.22
2023-02-05T05:48:55.370Z,103364.53
2023-02-05T05:51:23.038Z,103334.03
2023-02-05T05:53:50.071Z,103275.66
2023-02-05T05:56:17.626Z,103289.53
2023-02-05T05:58:45.091Z,103261.84
2023-02-05T06:01:13.030Z,103292.75
2023-02-05T06:03:39.493Z,103235.38
2023-02-05T06:06:07.731Z,103278.75
2023-02-05T06:08:35.244Z,103286.47
2023-02-05T06:11:01.800Z,103317.88
2023-02-05T06:13:28.276Z,103247.44
2023-02-05T06:15:55.042Z,103255.06
2023-02-05T06:18:23.722Z,103276.03
2023-02-05T06:20:50.538Z,103295.09
2023-02-05T06:23:17.079Z,103292.75
2023-02-05T06:25:43.518Z,103302.22
2023-02-05T06:28:10.172Z,103107.81
2023-02-05T06:30:37.103Z,103232.00
2023-02-05T06:33:03.912Z,103133.84
2023-02-05T06:35:30.394Z,103147.84
2023-02-05T06:37:56.982Z,103287.72
2023-02-05T06:40:25.980Z,103305.22
2023-02-05T06:42:53.562Z,103312.09
2023-02-05T06:45:20.310Z,103053.44
2023-02-05T06:47:47.188Z,103270.63
2023-02-05T06:50:13.864Z,103293.03
2023-02-05T06:52:40.372Z,103296.56
2023-02-05T06:55:07.377Z,103239.28
2023-02-05T06:57:33.884Z,103316.69
2023-02-05T07:00:00.673Z,103320.09
2023-02-05T07:02:27.550Z,103305.38
2023-02-05T07:04:54.094Z,103223.59
2023-02-05T07:07:20.531Z,103280.03
2023-02-05T07:09:47.034Z,103244.28
2023-02-05T07:12:13.600Z,103281.69
2023-02-05T07:14:41.536Z,103245.22
2023-02-05T07:17:08.891Z,103277.44
2023-02-05T07:19:36.961Z,103302.59
2023-02-05T07:22:04.850Z,103217.41
2023-02-05T07:24:31.663Z,103268.03
2023-02-05T07:26:58.350Z,103292.34
2023-02-05T07:29:25.242Z,103307.09
2023-02-05T07:31:52.340Z,103281.91
2023-02-05T07:34:19.403Z,103280.13
2023-02-05T07:36:45.834Z,103266.28
2023-02-05T07:39:12.264Z,103172.63
2023-02-05T07:41:38.707Z,103275.00
2023-02-05T07:44:05.254Z,103316.88
2023-02-05T07:46:31.747Z,103291.50
2023-02-05T07:48:58.305Z,103252.31
2023-02-05T07:51:26.391Z,103319.22
2023-02-05T07:53:53.361Z,103319.16
2023-02-05T07:56:21.861Z,103241.69
2023-02-05T07:58:49.554Z,103123.53
2023-02-05T08:01:16.177Z,103220.13
2023-02-05T08:03:43.365Z,103293.63
2023-02-05T08:06:14.652Z,103148.66
2023-02-05T08:08:44.569Z,103188.75
2023-02-05T08:11:15.044Z,103304.78
2023-02-05T08:13:42.575Z,103243.13
2023-02-05T08:16:09.311Z,103301.09
2023-02-05T08:18:35.840Z,103177.78
2023-02-05T08:21:02.447Z,103271.38
2023-02-05T08:23:29.011Z,103193.25
2023-02-05T08:25:56.698Z,103208.00
2023-02-05T08:28:25.082Z,103305.91
2023-02-05T08:30:51.807Z,103228.53
2023-02-05T08:33:18.419Z,103313.75
2023-02-05T08:35:45.538Z,103302.88
2023-02-05T08:38:11.960Z,103330.50
2023-02-05T08:40:38.494Z,103315.00
2023-02-05T08:43:05.038Z,103298.44
2023-02-05T08:45:31.782Z,103313.72
2023-02-05T08:47:58.344Z,103265.91
2023-02-05T08:50:25.699Z,103353.53
2023-02-05T08:52:52.159Z,103252.75
2023-02-05T08:55:18.675Z,103296.72
2023-02-05T08:57:45.696Z,103352.22
2023-02-05T09:00:13.027Z,103212.69
2023-02-05T09:02:42.420Z,103287.09
2023-02-05T09:05:09.862Z,103345.28
2023-02-05T09:07:38.634Z,103273.81
2023-02-05T09:10:07.407Z,103328.31
2023-02-05T09:12:33.942Z,103304.13
2023-02-05T09:15:00.351Z,103309.09
2023-02-05T09:17:27.360Z,103359.41
2023-02-05T09:19:53.850Z,103328.91
2023-02-05T09:22:20.929Z,103300.97
2023-02-05T09:24:47.547Z,103290.41
2023-02-05T09:27:14.966Z,103328.44
2023-02-05T09:29:41.874Z,103303.31
2023-02-05T09:32:08.617Z,103330.41
2023-02-05T09:34:35.193Z,103355.16
2023-02-05T09:37:01.611Z,103331.69
2023-02-05T09:40:02.251Z,103354.97
2023-02-05T09:42:56.403Z,103355.72
2023-02-05T09:45:22.805Z,103360.06
2023-02-05T09:48:06.244Z,103258.59
2023-02-05T09:50:33.872Z,103314.97
2023-02-05T09:53:05.931Z,103364.28
2023-02-05T09:55:46.933Z,103351.03
2023-02-05T09:58:23.348Z,103327.81
2023-02-05T10:01:12.666Z,103330.41
2023-02-05T10:03:54.590Z,103327.72
2023-02-05T10:06:52.766Z,103373.66
2023-02-05T10:09:41.206Z,103370.19
2023-02-05T10:12:22.968Z,103370.97
2023-02-05T10:15:01.428Z,103371.81
2023-02-05T10:17:51.972Z,103377.81
2023-02-05T10:20:45.780Z,103365.50
2023-02-05T10:23:16.733Z,103365.28
2023-02-05T10:26:08.966Z,103365.09
2023-02-05T10:29:08.538Z,103378.31
2023-02-05T10:31:57.974Z,103281.88
2023-02-05T10:34:57.331Z,103397.47
2023-02-05T10:37:57.840Z,103380.44
2023-02-05T10:40:31.220Z,103290.47
2023-02-05T10:43:05.181Z,103384.81
2023-02-05T10:45:32.072Z,103382.94
2023-02-05T10:48:04.438Z,103389.81
2023-02-05T10:50:47.690Z,103328.25
2023-02-05T10:53:19.180Z,103419.34
2023-02-05T10:55:45.696Z,103394.56
2023-02-05T10:58:48.091Z,103402.88
2023-02-05T11:01:19.451Z,103415.03
2023-02-05T11:03:52.549Z,103394.03
2023-02-05T11:06:20.835Z,103424.41
2023-02-05T11:08:47.835Z,103365.03
2023-02-05T11:11:34.613Z,103400.06
2023-02-05T11:14:05.535Z,103400.03
2023-02-05T11:16:45.749Z,103378.16
2023-02-05T11:19:21.307Z,103404.72
2023-02-05T11:21:55.244Z,103404.97
2023-02-05T11:24:26.127Z,103411.19
2023-02-05T11:27:30.764Z,103338.38
2023-02-05T11:30:17.834Z,103372.16
2023-02-05T11:32:45.657Z,103352.47
2023-02-05T11:35:23.685Z,103375.94
2023-02-05T11:38:17.614Z,103414.84
2023-02-05T11:40:52.289Z,103366.25
2023-02-05T11:43:27.282Z,103395.69
2023-02-05T11:45:56.689Z,103402.81
2023-02-05T11:48:34.255Z,103375.63
2023-02-05T11:51:03.452Z,103416.44
2023-02-05T11:53:32.962Z,103387.78
2023-02-05T11:56:04.975Z,103375.38
2023-02-05T11:58:37.020Z,103399.78
2023-02-05T12:01:29.154Z,103418.31
2023-02-05T12:04:12.461Z,103339.22
2023-02-05T12:06:57.554Z,103454.84
2023-02-05T12:09:27.279Z,103249.38
2023-02-05T12:12:21.414Z,103408.56
2023-02-05T12:15:06.800Z,103413.03
2023-02-05T12:17:40.171Z,103404.41
2023-02-05T12:20:23.370Z,103401.28
2023-02-05T12:24:00.652Z,103428.84
2023-02-05T12:26:33.256Z,103413.66
2023-02-05T12:29:25.956Z,103408.09
2023-02-05T12:32:20.351Z,103403.69
2023-02-05T12:35:11.300Z,103406.47
2023-02-05T12:37:43.955Z,103355.22
2023-02-05T12:40:41.673Z,103386.22
2023-02-05T12:43:27.042Z,103341.00
2023-02-05T12:46:27.688Z,103377.81
2023-02-05T12:49:01.100Z,103386.41
2023-02-05T12:51:46.270Z,103395.63
2023-02-05T12:54:28.046Z,103406.16
2023-02-05T12:57:05.289Z,103378.34
2023-02-05T12:59:48.485Z,103371.09
2023-02-05T13:02:34.378Z,103438.72
2023-02-05T13:05:19.249Z,103394.22
2023-02-05T13:07:52.953Z,103379.44
2023-02-05T13:10:28.304Z,103423.34
2023-02-05T13:16:05.901Z,103332.44
2023-02-05T13:18:41.450Z,103439.03
2023-02-05T13:21:33.892Z,103431.94
2023-02-05T13:24:40.337Z,103444.09
2023-02-05T13:27:44.506Z,103454.72
2023-02-05T13:30:19.568Z,103442.25
2023-02-05T13:32:51.735Z,103438.81
2023-02-05T13:35:20.090Z,103446.75
2023-02-05T13:37:58.580Z,103455.47
2023-02-05T13:40:43.843Z,103448.22
2023-02-05T13:43:18.191Z,103459.81
2023-02-05T13:46:07.404Z,103450.97
2023-02-05T13:48:58.291Z,103458.94
2023-02-05T13:51:33.766Z,103464.34
2023-02-05T13:54:37.365Z,103470.59
2023-02-05T13:57:38.402Z,103478.66
2023-02-05T14:00:08.821Z,103489.47
2023-02-05T14:02:44.986Z,103489.56
2023-02-05T14:05:13.637Z,103479.09
2023-02-05T14:07:51.553Z,103476.34
2023-02-05T14:10:30.262Z,103471.03
2023-02-05T14:16:24.263Z,103472.94
2023-02-05T14:18:59.815Z,103468.69
2023-02-05T14:21:35.138Z,103457.25
2023-02-05T14:24:22.879Z,103454.78
2023-02-05T14:26:52.324Z,103463.72
2023-02-05T14:29:49.571Z,103469.03
2023-02-05T14:32:28.130Z,103474.47
2023-02-05T14:35:03.614Z,103483.53
2023-02-05T14:37:35.193Z,103481.91
2023-02-05T14:40:14.516Z,103481.84
2023-02-05T14:42:42.220Z,103492.53
2023-02-05T14:45:15.912Z,103469.06
2023-02-05T14:47:47.146Z,103458.97
2023-02-05T14:50:26.496Z,103520.78
2023-02-05T14:52:57.727Z,103526.38
2023-02-05T14:55:30.145Z,103528.06
2023-02-05T14:58:04.107Z,103527.53
2023-02-05T15:00:32.223Z,103534.03
2023-02-05T15:03:04.469Z,103540.31
2023-02-05T15:05:40.087Z,103529.94
2023-02-05T15:08:28.356Z,103530.06
2023-02-05T15:11:22.977Z,103526.75
2023-02-05T15:14:20.962Z,103520.72
2023-02-05T15:17:05.908Z,103521.94
2023-02-05T15:19:46.274Z,103506.25
2023-02-05T15:22:26.863Z,103513.28
2023-02-05T15:24:54.614Z,103510.81
2023-02-05T15:27:24.869Z,103508.38
2023-02-05T15:29:57.162Z,103514.16
2023-02-05T15:32:32.786Z,103520.72
2023-02-05T15:35:12.812Z,103527.81
2023-02-05T15:37:48.785Z,103544.66
2023-02-05T15:40:30.960Z,103532.31
2023-02-05T15:43:22.270Z,103536.88
2023-02-05T15:45:52.005Z,103523.38
2023-02-05T15:48:31.009Z,103537.25
2023-02-05T15:51:02.228Z,103548.03
2023-02-05T15:53:34.516Z,103535.75
2023-02-05T15:56:12.681Z,103545.59
2023-02-05T15:58:45.724Z,103541.38
2023-02-05T16:01:22.501Z,103563.22
2023-02-05T16:03:49.185Z,103565.09
2023-02-05T16:06:19.832Z,103555.56
2023-02-05T16:08:48.129Z,103565.38
2023-02-05T16:11:30.476Z,103533.91
2023-02-05T16:14:24.192Z,103578.38
2023-02-05T16:17:21.461Z,103571.56
2023-02-05T16:19:50.608Z,103587.44
2023-02-05T16:22:33.342Z,103587.50
2023-02-05T16:25:06.584Z,103592.88
2023-02-05T16:27:43.095Z,103592.88
2023-02-05T16:30:43.582Z,103592.00
2023-02-05T16:33:26.827Z,103576.56
2023-02-05T16:35:54.097Z,103595.78
2023-02-05T16:38:23.198Z,103607.34
2023-02-05T16:40:53.541Z,103603.00
2023-02-05T16:43:39.094Z,103590.16
2023-02-05T16:46:20.740Z,103611.06
2023-02-05T16:48:47.552Z,103615.50
2023-02-05T16:51:31.961Z,103598.16
2023-02-05T16:54:00.740Z,103618.31
2023-02-05T16:56:32.368Z,103624.44
2023-02-05T16:59:01.331Z,103624.47
2023-02-05T17:01:36.698Z,103624.47
2023-02-05T17:04:03.356Z,103628.06
2023-02-05T17:06:35.908Z,103632.44
2023-02-05T17:09:04.962Z,103649.22
2023-02-05T17:11:34.782Z,103650.19
2023-02-05T17:14:28.588Z,103659.81
2023-02-05T17:17:03.287Z,103649.28
2023-02-05T17:19:32.084Z,103644.06
2023-02-05T17:22:13.813Z,103648.38
2023-02-05T17:24:41.752Z,103624.06
2023-02-05T17:27:38.163Z,103652.75
2023-02-05T17:30:10.412Z,103654.59
2023-02-05T17:32:37.523Z,103651.28
2023-02-05T17:35:13.604Z,103669.63
2023-02-05T17:37:40.052Z,103673.19
2023-02-05T17:40:06.997Z,103675.84
2023-02-05T17:42:33.422Z,103671.47
2023-02-05T17:44:59.827Z,103646.38
2023-02-05T17:47:26.292Z,103681.22
2023-02-05T17:49:52.775Z,103677.00
2023-02-05T17:52:19.323Z,103677.91
2023-02-05T17:54:46.229Z,103696.31
2023-02-05T17:57:19.224Z,103703.34
2023-02-05T17:59:46.209Z,103706.97
2023-02-05T18:02:13.418Z,103692.97
2023-02-05T18:04:41.246Z,103705.28
2023-02-05T18:07:25.260Z,103692.06
2023-02-05T18:09:51.666Z,103688.88
2023-02-05T18:12:18.213Z,103686.88
2023-02-05T18:14:44.737Z,103690.38
2023-02-05T18:17:11.261Z,103696.56
2023-02-05T18:19:37.730Z,103695.72
2023-02-05T18:22:05.492Z,103706.28
2023-02-05T18:24:32.920Z,103717.75
2023-02-05T18:26:59.398Z,103711.66
2023-02-05T18:29:27.686Z,103714.28
2023-02-05T18:31:54.067Z,103723.97
2023-02-05T18:34:20.513Z,103724.00
2023-02-05T18:36:46.931Z,103695.22
2023-02-05T18:39:13.324Z,103709.03
2023-02-05T18:41:40.948Z,103712.63
2023-02-05T18:44:07.489Z,103701.31
2023-02-05T18:46:34.879Z,103712.69
2023-02-05T18:49:01.668Z,103651.78
2023-02-05T18:51:28.319Z,103709.34
2023-02-05T18:53:54.902Z,103718.16
2023-02-05T18:56:24.165Z,103719.16
2023-02-05T18:58:59.202Z,103709.50
2023-02-05T19:01:26.575Z,103714.03
2023-02-05T19:03:54.432Z,103718.50
2023-02-05T19:06:21.728Z,103723.00
2023-02-05T19:08:49.366Z,103703.97
2023-02-05T19:11:20.293Z,103726.59
2023-02-05T19:13:47.595Z,103740.72
2023-02-05T19:16:16.240Z,103744.28
2023-02-05T19:18:44.851Z,103705.16
2023-02-05T19:21:19.671Z,103754.84
2023-02-05T19:23:49.847Z,103751.31
2023-02-05T19:26:19.298Z,103748.69
2023-02-05T19:28:51.164Z,103743.44
2023-02-05T19:31:17.765Z,103736.59
2023-02-05T19:33:45.512Z,103767.19
2023-02-05T19:36:12.000Z,103756.00
2023-02-05T19:38:40.103Z,103772.44
2023-02-05T19:41:14.857Z,103777.72
2023-02-05T19:43:50.575Z,103782.09
2023-02-05T19:46:18.679Z,103794.44
2023-02-05T19:48:45.535Z,103784.81
2023-02-05T19:51:13.624Z,103779.53
2023-02-05T19:53:43.221Z,103729.78
2023-02-05T19:56:15.360Z,103782.03
2023-02-05T19:58:44.495Z,103783.78
2023-02-05T20:01:19.246Z,103744.75
2023-02-05T20:03:46.406Z,103791.00
2023-02-05T20:06:15.801Z,103791.00
2023-02-05T20:08:43.033Z,103792.84
2023-02-05T20:11:09.558Z,103785.06
2023-02-05T20:13:37.251Z,103793.94
2023-02-05T20:16:06.441Z,103795.84
2023-02-05T20:18:33.041Z,103758.41
2023-02-05T20:20:59.550Z,103803.06
2023-02-05T20:23:26.094Z,103784.75
2023-02-05T20:26:01.110Z,103782.06
2023-02-05T20:28:27.676Z,103771.66
2023-02-05T20:31:12.602Z,103783.06
2023-02-05T20:33:39.257Z,103784.84
2023-02-05T20:36:07.801Z,103794.53
2023-02-05T20:38:34.537Z,103785.91
2023-02-05T20:41:10.328Z,103783.38
2023-02-05T20:43:36.780Z,103790.50
2023-02-05T20:46:04.268Z,103799.38
2023-02-05T20:48:30.867Z,103791.75
2023-02-05T20:51:07.630Z,103799.63
2023-02-05T20:53:34.164Z,103778.00
2023-02-05T20:56:05.589Z,103805.13
2023-02-05T20:58:32.765Z,103767.78
2023-02-05T21:01:26.452Z,103815.91
2023-02-05T21:03:55.442Z,103826.63
2023-02-05T21:06:22.953Z,103824.09
2023-02-05T21:08:51.749Z,103831.19
2023-02-05T21:11:19.598Z,103825.97
2023-02-05T21:13:47.677Z,103826.03
2023-02-05T21:16:16.282Z,103813.09
2023-02-05T21:18:46.790Z,103806.97
2023-02-05T21:21:17.065Z,103758.13
2023-02-05T21:23:45.908Z,103815.84
2023-02-05T21:26:24.714Z,103807.22
2023-02-05T21:28:59.336Z,103797.66
2023-02-05T21:31:33.622Z,103810.00
2023-02-05T21:34:05.124Z,103803.09
2023-02-05T21:36:31.827Z,103811.91
2023-02-05T21:38:58.356Z,103813.75
2023-02-05T21:41:25.383Z,103816.41
2023-02-05T21:43:54.425Z,103807.69
2023-02-05T21:46:22.451Z,103812.16
2023-02-05T21:48:50.738Z,103815.72
2023-02-05T21:51:18.767Z,103840.34
2023-02-05T21:53:45.664Z,103843.00
2023-02-05T21:56:14.647Z,103845.72
2023-02-05T21:58:41.541Z,103805.50
2023-02-05T22:01:12.737Z,103780.19
2023-02-05T22:03:40.323Z,103854.53
2023-02-05T22:06:07.819Z,103842.31
2023-02-05T22:08:35.781Z,103849.31
2023-02-05T22:11:04.001Z,103858.13
2023-02-05T22:13:32.759Z,103861.69
2023-02-05T22:16:07.986Z,103870.44
2023-02-05T22:18:35.519Z,103874.84
2023-02-05T22:21:22.504Z,103871.34
2023-02-05T22:23:50.577Z,103881.00
2023-02-05T22:26:18.777Z,103876.59
2023-02-05T22:28:46.479Z,103881.00
2023-02-05T22:31:16.066Z,103867.84
2023-02-05T22:33:46.872Z,103857.31
2023-02-05T22:36:16.006Z,103859.97
2023-02-05T22:38:42.835Z,103832.84
2023-02-05T22:41:14.456Z,103858.22
2023-02-05T22:43:41.068Z,103805.75
2023-02-05T22:46:09.757Z,103859.13
2023-02-05T22:48:38.260Z,103828.59
2023-02-05T22:51:07.550Z,103860.03
2023-02-05T22:53:34.573Z,103868.78
2023-02-05T22:56:05.387Z,103873.19
2023-02-05T22:58:32.671Z,103867.91
2023-02-05T23:00:59.285Z,103860.94
2023-02-05T23:03:25.782Z,103848.66
2023-02-05T23:05:52.911Z,103863.53
2023-02-05T23:08:19.321Z,103803.25
2023-02-05T23:10:45.983Z,103859.19
2023-02-05T23:13:12.448Z,103867.97
2023-02-05T23:15:38.925Z,103859.22
2023-02-05T23:18:05.499Z,103854.84
2023-02-05T23:20:32.401Z,103860.09
2023-02-05T23:22:58.811Z,103860.97
2023-02-05T23:25:25.506Z,103865.34
2023-02-05T23:27:52.073Z,103862.72
2023-02-05T23:30:18.696Z,103853.97
2023-02-05T23:32:45.308Z,103850.44
2023-02-05T23:35:11.733Z,103856.59
2023-02-05T23:37:38.140Z,103855.72
2023-02-05T23:40:04.928Z,103871.47
2023-02-05T23:42:31.327Z,103803.28
2023-02-05T23:44:57.720Z,103774.41
2023-02-05T23:47:24.125Z,103865.34
2023-02-05T23:49:50.574Z,103866.16
2023-02-05T23:52:16.957Z,103860.91
2023-02-05T23:54:43.450Z,103859.13
2023-02-05T23:57:09.929Z,103862.59
2023-02-05T23:59:36.429Z,103862.59
